sensor_id;sensor_type;location;lat;lon;timestamp;temperature;humidity
50544;DHT22;41176;44.032;20.900;2023-09-19T00:01:42;23.40;83.20
50544;DHT22;41176;44.032;20.900;2023-09-19T00:04:13;23.30;83.40
50544;DHT22;41176;44.032;20.900;2023-09-19T00:06:40;23.30;83.50
50544;DHT22;41176;44.032;20.900;2023-09-19T00:09:06;23.30;83.70
50544;DHT22;41176;44.032;20.900;2023-09-19T00:11:38;23.40;83.30
50544;DHT22;41176;44.032;20.900;2023-09-19T00:14:04;23.40;83.40
50544;DHT22;41176;44.032;20.900;2023-09-19T00:16:34;23.40;83.30
50544;DHT22;41176;44.032;20.900;2023-09-19T00:18:59;23.40;83.20
50544;DHT22;41176;44.032;20.900;2023-09-19T00:21:31;23.20;83.10
50544;DHT22;41176;44.032;20.900;2023-09-19T00:23:57;23.20;83.80
50544;DHT22;41176;44.032;20.900;2023-09-19T00:26:23;23.10;83.90
50544;DHT22;41176;44.032;20.900;2023-09-19T00:28:52;23.10;84.00
50544;DHT22;41176;44.032;20.900;2023-09-19T00:31:18;23.00;84.50
50544;DHT22;41176;44.032;20.900;2023-09-19T00:33:44;23.10;83.40
50544;DHT22;41176;44.032;20.900;2023-09-19T00:36:09;23.20;83.80
50544;DHT22;41176;44.032;20.900;2023-09-19T00:38:35;23.20;83.40
50544;DHT22;41176;44.032;20.900;2023-09-19T00:41:01;23.20;83.70
50544;DHT22;41176;44.032;20.900;2023-09-19T00:43:27;23.20;83.10
50544;DHT22;41176;44.032;20.900;2023-09-19T00:45:54;23.10;83.50
50544;DHT22;41176;44.032;20.900;2023-09-19T00:48:22;23.10;83.70
50544;DHT22;41176;44.032;20.900;2023-09-19T00:50:48;23.10;83.70
50544;DHT22;41176;44.032;20.900;2023-09-19T00:53:18;23.10;83.70
50544;DHT22;41176;44.032;20.900;2023-09-19T00:55:46;23.00;83.60
50544;DHT22;41176;44.032;20.900;2023-09-19T00:58:12;23.10;84.20
50544;DHT22;41176;44.032;20.900;2023-09-19T01:00:40;23.10;83.80
50544;DHT22;41176;44.032;20.900;2023-09-19T01:03:06;23.10;83.30
50544;DHT22;41176;44.032;20.900;2023-09-19T01:05:33;23.10;83.40
50544;DHT22;41176;44.032;20.900;2023-09-19T01:07:59;23.10;83.20
50544;DHT22;41176;44.032;20.900;2023-09-19T01:10:25;23.10;83.70
50544;DHT22;41176;44.032;20.900;2023-09-19T01:18:35;23.00;83.80
50544;DHT22;41176;44.032;20.900;2023-09-19T01:26:56;23.00;83.40
50544;DHT22;41176;44.032;20.900;2023-09-19T01:29:45;23.00;83.40
50544;DHT22;41176;44.032;20.900;2023-09-19T01:32:15;23.10;83.10
50544;DHT22;41176;44.032;20.900;2023-09-19T01:34:54;22.90;83.30
50544;DHT22;41176;44.032;20.900;2023-09-19T01:37:22;23.10;83.00
50544;DHT22;41176;44.032;20.900;2023-09-19T01:40:01;23.10;82.80
50544;DHT22;41176;44.032;20.900;2023-09-19T01:43:04;23.10;82.80
50544;DHT22;41176;44.032;20.900;2023-09-19T01:45:59;23.10;82.50
50544;DHT22;41176;44.032;20.900;2023-09-19T01:51:10;22.90;83.10
50544;DHT22;41176;44.032;20.900;2023-09-19T01:53:53;22.90;83.10
50544;DHT22;41176;44.032;20.900;2023-09-19T01:59:09;23.00;82.70
50544;DHT22;41176;44.032;20.900;2023-09-19T02:01:37;23.00;82.80
50544;DHT22;41176;44.032;20.900;2023-09-19T02:04:03;22.90;83.20
50544;DHT22;41176;44.032;20.900;2023-09-19T02:06:29;22.90;83.20
50544;DHT22;41176;44.032;20.900;2023-09-19T02:08:55;22.80;83.00
50544;DHT22;41176;44.032;20.900;2023-09-19T02:11:21;22.80;83.10
50544;DHT22;41176;44.032;20.900;2023-09-19T02:13:47;22.80;83.20
50544;DHT22;41176;44.032;20.900;2023-09-19T02:16:14;22.80;83.40
50544;DHT22;41176;44.032;20.900;2023-09-19T02:18:42;22.80;83.50
50544;DHT22;41176;44.032;20.900;2023-09-19T02:21:08;22.90;83.60
50544;DHT22;41176;44.032;20.900;2023-09-19T02:23:35;22.90;84.00
50544;DHT22;41176;44.032;20.900;2023-09-19T02:26:01;22.90;84.80
50544;DHT22;41176;44.032;20.900;2023-09-19T02:28:27;22.90;85.90
50544;DHT22;41176;44.032;20.900;2023-09-19T02:30:57;23.00;86.60
50544;DHT22;41176;44.032;20.900;2023-09-19T02:33:23;23.10;87.10
50544;DHT22;41176;44.032;20.900;2023-09-19T02:35:49;23.10;86.40
50544;DHT22;41176;44.032;20.900;2023-09-19T02:38:16;23.00;86.20
50544;DHT22;41176;44.032;20.900;2023-09-19T02:40:46;22.90;85.90
50544;DHT22;41176;44.032;20.900;2023-09-19T02:43:12;22.70;85.30
50544;DHT22;41176;44.032;20.900;2023-09-19T02:45:38;22.50;86.10
50544;DHT22;41176;44.032;20.900;2023-09-19T02:48:04;22.40;86.50
50544;DHT22;41176;44.032;20.900;2023-09-19T02:50:30;22.50;85.70
50544;DHT22;41176;44.032;20.900;2023-09-19T02:52:56;22.40;85.50
50544;DHT22;41176;44.032;20.900;2023-09-19T02:55:21;22.50;85.40
50544;DHT22;41176;44.032;20.900;2023-09-19T02:57:49;22.40;85.20
50544;DHT22;41176;44.032;20.900;2023-09-19T03:00:16;22.30;85.80
50544;DHT22;41176;44.032;20.900;2023-09-19T03:02:42;22.30;86.10
50544;DHT22;41176;44.032;20.900;2023-09-19T03:05:08;22.20;86.30
50544;DHT22;41176;44.032;20.900;2023-09-19T03:07:37;22.30;86.20
50544;DHT22;41176;44.032;20.900;2023-09-19T03:10:06;22.30;86.10
50544;DHT22;41176;44.032;20.900;2023-09-19T03:12:33;22.30;86.20
50544;DHT22;41176;44.032;20.900;2023-09-19T03:15:00;22.30;86.10
50544;DHT22;41176;44.032;20.900;2023-09-19T03:17:25;22.30;85.80
50544;DHT22;41176;44.032;20.900;2023-09-19T03:19:51;22.40;85.50
50544;DHT22;41176;44.032;20.900;2023-09-19T03:22:17;22.40;85.60
50544;DHT22;41176;44.032;20.900;2023-09-19T03:24:43;22.40;85.40
50544;DHT22;41176;44.032;20.900;2023-09-19T03:27:10;22.50;84.60
50544;DHT22;41176;44.032;20.900;2023-09-19T03:29:36;22.50;85.10
50544;DHT22;41176;44.032;20.900;2023-09-19T03:32:02;22.50;84.90
50544;DHT22;41176;44.032;20.900;2023-09-19T03:34:29;22.50;84.80
50544;DHT22;41176;44.032;20.900;2023-09-19T03:36:54;22.50;85.00
50544;DHT22;41176;44.032;20.900;2023-09-19T03:39:21;22.60;84.80
50544;DHT22;41176;44.032;20.900;2023-09-19T03:41:46;22.60;84.80
50544;DHT22;41176;44.032;20.900;2023-09-19T03:44:12;22.60;84.70
50544;DHT22;41176;44.032;20.900;2023-09-19T03:46:38;22.50;84.70
50544;DHT22;41176;44.032;20.900;2023-09-19T03:49:04;22.40;85.50
50544;DHT22;41176;44.032;20.900;2023-09-19T03:51:30;22.30;85.80
50544;DHT22;41176;44.032;20.900;2023-09-19T03:53:55;22.20;86.00
50544;DHT22;41176;44.032;20.900;2023-09-19T03:56:21;22.10;86.10
50544;DHT22;41176;44.032;20.900;2023-09-19T03:58:47;22.10;86.40
50544;DHT22;41176;44.032;20.900;2023-09-19T04:01:13;22.20;86.00
50544;DHT22;41176;44.032;20.900;2023-09-19T04:03:39;22.30;85.80
50544;DHT22;41176;44.032;20.900;2023-09-19T04:06:14;22.20;86.40
50544;DHT22;41176;44.032;20.900;2023-09-19T04:08:40;22.10;86.70
50544;DHT22;41176;44.032;20.900;2023-09-19T04:11:06;22.10;86.60
50544;DHT22;41176;44.032;20.900;2023-09-19T04:13:31;22.20;86.40
50544;DHT22;41176;44.032;20.900;2023-09-19T04:15:57;22.30;86.40
50544;DHT22;41176;44.032;20.900;2023-09-19T04:18:23;22.30;86.20
50544;DHT22;41176;44.032;20.900;2023-09-19T04:20:52;22.30;86.20
50544;DHT22;41176;44.032;20.900;2023-09-19T04:23:19;22.40;85.70
50544;DHT22;41176;44.032;20.900;2023-09-19T04:25:48;22.30;86.10
50544;DHT22;41176;44.032;20.900;2023-09-19T04:28:14;22.30;86.20
50544;DHT22;41176;44.032;20.900;2023-09-19T04:30:41;22.20;86.60
50544;DHT22;41176;44.032;20.900;2023-09-19T04:33:07;22.10;86.40
50544;DHT22;41176;44.032;20.900;2023-09-19T04:35:33;22.00;86.30
50544;DHT22;41176;44.032;20.900;2023-09-19T04:37:59;22.00;86.90
50544;DHT22;41176;44.032;20.900;2023-09-19T04:40:25;22.00;86.40
50544;DHT22;41176;44.032;20.900;2023-09-19T04:42:55;22.00;86.50
50544;DHT22;41176;44.032;20.900;2023-09-19T04:45:26;22.00;86.50
50544;DHT22;41176;44.032;20.900;2023-09-19T04:47:52;22.00;86.30
50544;DHT22;41176;44.032;20.900;2023-09-19T04:50:19;22.00;86.50
50544;DHT22;41176;44.032;20.900;2023-09-19T04:52:50;21.90;86.70
50544;DHT22;41176;44.032;20.900;2023-09-19T04:55:19;21.80;86.90
50544;DHT22;41176;44.032;20.900;2023-09-19T04:57:47;21.80;87.10
50544;DHT22;41176;44.032;20.900;2023-09-19T05:00:18;21.80;87.10
50544;DHT22;41176;44.032;20.900;2023-09-19T05:02:45;21.90;87.10
50544;DHT22;41176;44.032;20.900;2023-09-19T05:05:11;21.90;87.00
50544;DHT22;41176;44.032;20.900;2023-09-19T05:07:45;21.90;87.50
50544;DHT22;41176;44.032;20.900;2023-09-19T05:10:11;21.80;87.30
50544;DHT22;41176;44.032;20.900;2023-09-19T05:12:38;21.90;87.50
50544;DHT22;41176;44.032;20.900;2023-09-19T05:15:05;21.90;88.90
50544;DHT22;41176;44.032;20.900;2023-09-19T05:17:32;21.90;90.50
50544;DHT22;41176;44.032;20.900;2023-09-19T05:19:58;21.90;90.50
50544;DHT22;41176;44.032;20.900;2023-09-19T05:22:29;21.80;90.30
50544;DHT22;41176;44.032;20.900;2023-09-19T05:24:55;21.70;90.80
50544;DHT22;41176;44.032;20.900;2023-09-19T05:27:20;21.80;90.40
50544;DHT22;41176;44.032;20.900;2023-09-19T05:29:46;21.70;90.60
50544;DHT22;41176;44.032;20.900;2023-09-19T05:32:13;21.70;87.90
50544;DHT22;41176;44.032;20.900;2023-09-19T05:34:39;21.70;87.70
50544;DHT22;41176;44.032;20.900;2023-09-19T05:37:05;21.80;87.10
50544;DHT22;41176;44.032;20.900;2023-09-19T05:39:33;21.80;86.80
50544;DHT22;41176;44.032;20.900;2023-09-19T05:41:59;21.90;86.20
50544;DHT22;41176;44.032;20.900;2023-09-19T05:44:28;21.90;86.10
50544;DHT22;41176;44.032;20.900;2023-09-19T05:46:54;21.90;85.50
50544;DHT22;41176;44.032;20.900;2023-09-19T05:49:22;22.00;85.50
50544;DHT22;41176;44.032;20.900;2023-09-19T05:51:49;22.00;85.50
50544;DHT22;41176;44.032;20.900;2023-09-19T05:54:19;22.00;85.30
50544;DHT22;41176;44.032;20.900;2023-09-19T05:56:45;22.00;85.50
50544;DHT22;41176;44.032;20.900;2023-09-19T05:59:12;22.00;85.10
50544;DHT22;41176;44.032;20.900;2023-09-19T06:01:43;22.00;85.20
50544;DHT22;41176;44.032;20.900;2023-09-19T06:04:09;21.90;85.30
50544;DHT22;41176;44.032;20.900;2023-09-19T06:06:35;22.00;85.70
50544;DHT22;41176;44.032;20.900;2023-09-19T06:09:04;22.00;85.20
50544;DHT22;41176;44.032;20.900;2023-09-19T06:11:31;21.90;85.80
50544;DHT22;41176;44.032;20.900;2023-09-19T06:14:00;21.90;85.60
50544;DHT22;41176;44.032;20.900;2023-09-19T06:16:28;22.00;85.70
50544;DHT22;41176;44.032;20.900;2023-09-19T06:18:55;22.10;85.40
50544;DHT22;41176;44.032;20.900;2023-09-19T06:21:22;22.10;85.30
50544;DHT22;41176;44.032;20.900;2023-09-19T06:23:48;22.20;85.10
50544;DHT22;41176;44.032;20.900;2023-09-19T06:26:14;22.20;85.10
50544;DHT22;41176;44.032;20.900;2023-09-19T06:28:40;22.20;85.20
50544;DHT22;41176;44.032;20.900;2023-09-19T06:31:06;22.30;84.40
50544;DHT22;41176;44.032;20.900;2023-09-19T06:33:36;22.30;84.70
50544;DHT22;41176;44.032;20.900;2023-09-19T06:36:07;22.40;84.40
50544;DHT22;41176;44.032;20.900;2023-09-19T06:38:34;22.40;84.50
50544;DHT22;41176;44.032;20.900;2023-09-19T06:41:02;22.40;84.40
50544;DHT22;41176;44.032;20.900;2023-09-19T06:43:32;22.50;84.30
50544;DHT22;41176;44.032;20.900;2023-09-19T06:45:59;22.40;84.00
50544;DHT22;41176;44.032;20.900;2023-09-19T06:48:26;22.40;84.40
50544;DHT22;41176;44.032;20.900;2023-09-19T06:50:56;22.30;86.80
50544;DHT22;41176;44.032;20.900;2023-09-19T06:53:24;22.10;88.40
50544;DHT22;41176;44.032;20.900;2023-09-19T06:55:51;22.10;89.10
50544;DHT22;41176;44.032;20.900;2023-09-19T06:58:16;22.10;89.80
50544;DHT22;41176;44.032;20.900;2023-09-19T07:00:42;22.10;90.00
50544;DHT22;41176;44.032;20.900;2023-09-19T07:03:10;22.10;90.10
50544;DHT22;41176;44.032;20.900;2023-09-19T07:05:39;22.20;90.40
50544;DHT22;41176;44.032;20.900;2023-09-19T07:08:09;22.20;91.10
50544;DHT22;41176;44.032;20.900;2023-09-19T07:10:38;22.40;92.80
50544;DHT22;41176;44.032;20.900;2023-09-19T07:13:07;22.40;94.10
50544;DHT22;41176;44.032;20.900;2023-09-19T07:15:38;22.40;92.40
50544;DHT22;41176;44.032;20.900;2023-09-19T07:18:14;22.50;93.40
50544;DHT22;41176;44.032;20.900;2023-09-19T07:20:42;22.40;94.50
50544;DHT22;41176;44.032;20.900;2023-09-19T07:23:17;22.30;94.30
50544;DHT22;41176;44.032;20.900;2023-09-19T07:25:44;22.30;94.20
50544;DHT22;41176;44.032;20.900;2023-09-19T07:28:10;22.40;94.20
50544;DHT22;41176;44.032;20.900;2023-09-19T07:30:36;22.40;94.50
50544;DHT22;41176;44.032;20.900;2023-09-19T07:33:07;22.50;93.20
50544;DHT22;41176;44.032;20.900;2023-09-19T07:35:33;22.60;94.10
50544;DHT22;41176;44.032;20.900;2023-09-19T07:37:59;22.70;93.60
50544;DHT22;41176;44.032;20.900;2023-09-19T07:40:27;22.80;93.70
50544;DHT22;41176;44.032;20.900;2023-09-19T07:42:57;22.80;93.00
50544;DHT22;41176;44.032;20.900;2023-09-19T07:45:30;22.90;93.20
50544;DHT22;41176;44.032;20.900;2023-09-19T07:47:56;23.00;93.70
50544;DHT22;41176;44.032;20.900;2023-09-19T07:50:22;23.10;93.50
50544;DHT22;41176;44.032;20.900;2023-09-19T07:52:49;23.20;93.70
50544;DHT22;41176;44.032;20.900;2023-09-19T07:55:19;23.40;93.60
50544;DHT22;41176;44.032;20.900;2023-09-19T07:57:48;23.50;92.80
50544;DHT22;41176;44.032;20.900;2023-09-19T08:00:14;23.60;91.90
50544;DHT22;41176;44.032;20.900;2023-09-19T08:02:41;23.70;91.40
50544;DHT22;41176;44.032;20.900;2023-09-19T08:05:08;23.80;90.70
50544;DHT22;41176;44.032;20.900;2023-09-19T08:07:37;23.80;90.60
50544;DHT22;41176;44.032;20.900;2023-09-19T08:10:04;23.90;90.60
50544;DHT22;41176;44.032;20.900;2023-09-19T08:12:33;24.00;90.40
50544;DHT22;41176;44.032;20.900;2023-09-19T08:15:02;24.10;90.00
50544;DHT22;41176;44.032;20.900;2023-09-19T08:17:28;24.10;90.00
50544;DHT22;41176;44.032;20.900;2023-09-19T08:19:53;24.30;88.70
50544;DHT22;41176;44.032;20.900;2023-09-19T08:22:20;24.50;86.50
50544;DHT22;41176;44.032;20.900;2023-09-19T08:24:46;24.40;86.30
50544;DHT22;41176;44.032;20.900;2023-09-19T08:27:14;24.60;87.10
50544;DHT22;41176;44.032;20.900;2023-09-19T08:29:43;24.80;85.80
50544;DHT22;41176;44.032;20.900;2023-09-19T08:32:10;24.90;86.10
50544;DHT22;41176;44.032;20.900;2023-09-19T08:34:39;25.00;85.00
50544;DHT22;41176;44.032;20.900;2023-09-19T08:37:09;25.10;83.90
50544;DHT22;41176;44.032;20.900;2023-09-19T08:39:35;25.20;82.50
50544;DHT22;41176;44.032;20.900;2023-09-19T08:42:03;25.30;84.00
50544;DHT22;41176;44.032;20.900;2023-09-19T08:44:30;25.40;83.60
50544;DHT22;41176;44.032;20.900;2023-09-19T08:47:10;25.60;82.40
50544;DHT22;41176;44.032;20.900;2023-09-19T08:52:25;25.90;79.30
50544;DHT22;41176;44.032;20.900;2023-09-19T08:54:59;26.00;79.00
50544;DHT22;41176;44.032;20.900;2023-09-19T08:57:29;26.00;78.90
50544;DHT22;41176;44.032;20.900;2023-09-19T08:59:56;26.00;79.10
50544;DHT22;41176;44.032;20.900;2023-09-19T09:02:22;26.10;78.90
50544;DHT22;41176;44.032;20.900;2023-09-19T09:04:49;26.30;78.00
50544;DHT22;41176;44.032;20.900;2023-09-19T09:07:16;26.50;77.10
50544;DHT22;41176;44.032;20.900;2023-09-19T09:09:44;26.60;77.50
50544;DHT22;41176;44.032;20.900;2023-09-19T09:12:12;26.60;77.70
50544;DHT22;41176;44.032;20.900;2023-09-19T09:14:39;26.70;76.40
50544;DHT22;41176;44.032;20.900;2023-09-19T09:17:05;26.70;76.60
50544;DHT22;41176;44.032;20.900;2023-09-19T09:19:32;26.80;76.10
50544;DHT22;41176;44.032;20.900;2023-09-19T09:22:11;26.80;76.30
50544;DHT22;41176;44.032;20.900;2023-09-19T09:24:39;26.80;76.90
50544;DHT22;41176;44.032;20.900;2023-09-19T09:27:16;27.00;75.60
50544;DHT22;41176;44.032;20.900;2023-09-19T09:29:43;27.10;75.30
50544;DHT22;41176;44.032;20.900;2023-09-19T09:32:29;27.00;75.60
50544;DHT22;41176;44.032;20.900;2023-09-19T09:34:56;27.10;75.80
50544;DHT22;41176;44.032;20.900;2023-09-19T09:37:23;27.30;77.20
50544;DHT22;41176;44.032;20.900;2023-09-19T09:42:33;27.50;75.20
50544;DHT22;41176;44.032;20.900;2023-09-19T09:45:18;27.60;74.90
50544;DHT22;41176;44.032;20.900;2023-09-19T09:48:00;27.70;74.60
50544;DHT22;41176;44.032;20.900;2023-09-19T09:50:31;27.90;74.50
50544;DHT22;41176;44.032;20.900;2023-09-19T09:53:29;28.00;73.80
50544;DHT22;41176;44.032;20.900;2023-09-19T09:56:07;28.00;73.30
50544;DHT22;41176;44.032;20.900;2023-09-19T09:58:48;28.00;73.80
50544;DHT22;41176;44.032;20.900;2023-09-19T10:01:14;28.10;73.80
50544;DHT22;41176;44.032;20.900;2023-09-19T10:03:42;28.20;74.70
50544;DHT22;41176;44.032;20.900;2023-09-19T10:06:17;28.20;73.10
50544;DHT22;41176;44.032;20.900;2023-09-19T10:09:08;28.10;72.80
50544;DHT22;41176;44.032;20.900;2023-09-19T10:12:07;28.00;73.70
50544;DHT22;41176;44.032;20.900;2023-09-19T10:14:38;28.20;73.30
50544;DHT22;41176;44.032;20.900;2023-09-19T10:17:10;28.40;73.00
50544;DHT22;41176;44.032;20.900;2023-09-19T10:19:42;28.40;72.70
50544;DHT22;41176;44.032;20.900;2023-09-19T10:22:13;28.50;72.50
50544;DHT22;41176;44.032;20.900;2023-09-19T10:24:47;28.60;72.20
50544;DHT22;41176;44.032;20.900;2023-09-19T10:27:18;28.70;72.50
50544;DHT22;41176;44.032;20.900;2023-09-19T10:29:45;28.80;72.20
50544;DHT22;41176;44.032;20.900;2023-09-19T10:32:15;29.00;72.60
50544;DHT22;41176;44.032;20.900;2023-09-19T10:34:46;29.20;72.40
50544;DHT22;41176;44.032;20.900;2023-09-19T10:37:13;29.30;70.80
50544;DHT22;41176;44.032;20.900;2023-09-19T10:39:42;29.20;71.00
50544;DHT22;41176;44.032;20.900;2023-09-19T10:42:14;29.10;70.60
50544;DHT22;41176;44.032;20.900;2023-09-19T10:44:43;29.20;72.10
50544;DHT22;41176;44.032;20.900;2023-09-19T10:47:10;29.40;71.20
50544;DHT22;41176;44.032;20.900;2023-09-19T10:49:44;29.60;70.20
50544;DHT22;41176;44.032;20.900;2023-09-19T10:52:14;29.60;70.70
50544;DHT22;41176;44.032;20.900;2023-09-19T10:54:50;29.70;71.70
50544;DHT22;41176;44.032;20.900;2023-09-19T10:57:22;29.80;70.50
50544;DHT22;41176;44.032;20.900;2023-09-19T11:00:06;29.90;69.50
50544;DHT22;41176;44.032;20.900;2023-09-19T11:03:16;30.00;69.90
50544;DHT22;41176;44.032;20.900;2023-09-19T11:06:07;30.20;70.50
50544;DHT22;41176;44.032;20.900;2023-09-19T11:11:44;30.10;69.50
50544;DHT22;41176;44.032;20.900;2023-09-19T11:30:47;30.70;68.40
50544;DHT22;41176;44.032;20.900;2023-09-19T11:33:16;30.80;68.20
50544;DHT22;41176;44.032;20.900;2023-09-19T11:35:59;30.80;68.20
50544;DHT22;41176;44.032;20.900;2023-09-19T11:46:21;31.00;68.30
50544;DHT22;41176;44.032;20.900;2023-09-19T11:48:51;30.90;67.60
50544;DHT22;41176;44.032;20.900;2023-09-19T11:51:19;30.90;67.40
50544;DHT22;41176;44.032;20.900;2023-09-19T11:53:50;31.10;67.90
50544;DHT22;41176;44.032;20.900;2023-09-19T11:56:17;31.20;66.90
50544;DHT22;41176;44.032;20.900;2023-09-19T11:58:48;31.00;67.00
50544;DHT22;41176;44.032;20.900;2023-09-19T12:01:21;31.10;68.00
50544;DHT22;41176;44.032;20.900;2023-09-19T12:03:47;31.10;67.90
50544;DHT22;41176;44.032;20.900;2023-09-19T12:06:18;31.20;68.10
50544;DHT22;41176;44.032;20.900;2023-09-19T12:08:44;31.20;66.10
50544;DHT22;41176;44.032;20.900;2023-09-19T12:11:16;31.00;66.30
50544;DHT22;41176;44.032;20.900;2023-09-19T12:13:44;30.80;66.60
50544;DHT22;41176;44.032;20.900;2023-09-19T12:16:17;30.80;68.60
50544;DHT22;41176;44.032;20.900;2023-09-19T12:18:48;30.90;68.50
50544;DHT22;41176;44.032;20.900;2023-09-19T12:21:25;30.70;67.40
50544;DHT22;41176;44.032;20.900;2023-09-19T12:26:45;30.80;67.80
50544;DHT22;41176;44.032;20.900;2023-09-19T12:29:19;30.70;67.90
50544;DHT22;41176;44.032;20.900;2023-09-19T12:31:53;30.90;68.30
50544;DHT22;41176;44.032;20.900;2023-09-19T12:34:25;31.00;68.00
50544;DHT22;41176;44.032;20.900;2023-09-19T12:37:14;31.20;67.90
50544;DHT22;41176;44.032;20.900;2023-09-19T12:40:09;31.30;67.20
50544;DHT22;41176;44.032;20.900;2023-09-19T12:42:48;31.40;66.10
50544;DHT22;41176;44.032;20.900;2023-09-19T12:45:15;31.40;66.20
50544;DHT22;41176;44.032;20.900;2023-09-19T12:48:17;31.40;67.50
50544;DHT22;41176;44.032;20.900;2023-09-19T12:51:05;31.40;66.90
50544;DHT22;41176;44.032;20.900;2023-09-19T12:53:44;31.40;66.60
50544;DHT22;41176;44.032;20.900;2023-09-19T12:56:17;31.40;66.70
50544;DHT22;41176;44.032;20.900;2023-09-19T12:58:57;31.40;66.20
50544;DHT22;41176;44.032;20.900;2023-09-19T13:01:28;31.50;67.00
50544;DHT22;41176;44.032;20.900;2023-09-19T13:04:17;31.50;66.60
50544;DHT22;41176;44.032;20.900;2023-09-19T13:06:52;31.50;65.80
50544;DHT22;41176;44.032;20.900;2023-09-19T13:09:19;31.50;65.90
50544;DHT22;41176;44.032;20.900;2023-09-19T13:11:46;31.50;65.00
50544;DHT22;41176;44.032;20.900;2023-09-19T13:14:20;31.30;65.70
50544;DHT22;41176;44.032;20.900;2023-09-19T13:19:43;31.30;66.80
50544;DHT22;41176;44.032;20.900;2023-09-19T13:22:39;31.30;67.50
50544;DHT22;41176;44.032;20.900;2023-09-19T13:25:12;31.30;67.00
50544;DHT22;41176;44.032;20.900;2023-09-19T13:27:47;31.40;66.90
50544;DHT22;41176;44.032;20.900;2023-09-19T13:30:17;31.30;65.10
50544;DHT22;41176;44.032;20.900;2023-09-19T13:32:44;31.20;67.00
50544;DHT22;41176;44.032;20.900;2023-09-19T13:35:10;31.10;67.10
50544;DHT22;41176;44.032;20.900;2023-09-19T13:37:38;31.00;66.80
50544;DHT22;41176;44.032;20.900;2023-09-19T13:40:08;30.80;66.90
50544;DHT22;41176;44.032;20.900;2023-09-19T13:42:34;30.60;67.20
50544;DHT22;41176;44.032;20.900;2023-09-19T13:45:02;30.70;68.10
50544;DHT22;41176;44.032;20.900;2023-09-19T13:47:29;30.60;67.50
50544;DHT22;41176;44.032;20.900;2023-09-19T13:49:55;30.50;68.20
50544;DHT22;41176;44.032;20.900;2023-09-19T13:52:21;30.40;68.60
50544;DHT22;41176;44.032;20.900;2023-09-19T13:54:51;30.30;68.10
50544;DHT22;41176;44.032;20.900;2023-09-19T13:57:18;30.30;67.40
50544;DHT22;41176;44.032;20.900;2023-09-19T13:59:44;30.20;67.80
50544;DHT22;41176;44.032;20.900;2023-09-19T14:02:10;30.10;69.00
50544;DHT22;41176;44.032;20.900;2023-09-19T14:04:35;30.10;69.30
50544;DHT22;41176;44.032;20.900;2023-09-19T14:07:02;30.00;69.90
50544;DHT22;41176;44.032;20.900;2023-09-19T14:09:30;30.00;68.70
50544;DHT22;41176;44.032;20.900;2023-09-19T14:11:56;29.90;68.90
50544;DHT22;41176;44.032;20.900;2023-09-19T14:14:22;29.90;68.90
50544;DHT22;41176;44.032;20.900;2023-09-19T14:16:48;29.80;69.10
50544;DHT22;41176;44.032;20.900;2023-09-19T14:19:14;29.80;69.20
50544;DHT22;41176;44.032;20.900;2023-09-19T14:21:42;29.70;69.30
50544;DHT22;41176;44.032;20.900;2023-09-19T14:24:08;29.60;69.80
50544;DHT22;41176;44.032;20.900;2023-09-19T14:26:38;29.50;70.00
50544;DHT22;41176;44.032;20.900;2023-09-19T14:29:08;29.40;69.30
50544;DHT22;41176;44.032;20.900;2023-09-19T14:31:38;29.00;71.90
50544;DHT22;41176;44.032;20.900;2023-09-19T14:34:07;28.30;76.40
50544;DHT22;41176;44.032;20.900;2023-09-19T14:36:36;27.40;81.30
50544;DHT22;41176;44.032;20.900;2023-09-19T14:39:02;26.00;88.10
50544;DHT22;41176;44.032;20.900;2023-09-19T14:41:40;24.80;91.50
50544;DHT22;41176;44.032;20.900;2023-09-19T14:44:18;24.20;94.70
50544;DHT22;41176;44.032;20.900;2023-09-19T14:46:46;24.00;97.50
50544;DHT22;41176;44.032;20.900;2023-09-19T14:49:30;23.50;99.90
50544;DHT22;41176;44.032;20.900;2023-09-19T14:51:58;23.30;99.90
50544;DHT22;41176;44.032;20.900;2023-09-19T14:54:33;23.20;99.90
50544;DHT22;41176;44.032;20.900;2023-09-19T14:57:00;23.20;99.90
50544;DHT22;41176;44.032;20.900;2023-09-19T14:59:34;23.40;99.90
50544;DHT22;41176;44.032;20.900;2023-09-19T15:02:04;23.50;99.90
50544;DHT22;41176;44.032;20.900;2023-09-19T15:04:30;23.60;99.90
50544;DHT22;41176;44.032;20.900;2023-09-19T15:06:56;23.70;99.90
50544;DHT22;41176;44.032;20.900;2023-09-19T15:09:26;23.70;99.90
50544;DHT22;41176;44.032;20.900;2023-09-19T15:11:52;23.80;99.90
50544;DHT22;41176;44.032;20.900;2023-09-19T15:14:19;23.80;99.90
50544;DHT22;41176;44.032;20.900;2023-09-19T15:16:45;23.80;99.90
50544;DHT22;41176;44.032;20.900;2023-09-19T15:19:10;23.60;99.90
50544;DHT22;41176;44.032;20.900;2023-09-19T15:21:36;23.60;99.90
50544;DHT22;41176;44.032;20.900;2023-09-19T15:24:07;23.30;99.90
50544;DHT22;41176;44.032;20.900;2023-09-19T15:26:38;23.20;99.90
50544;DHT22;41176;44.032;20.900;2023-09-19T15:29:08;23.20;99.90
50544;DHT22;41176;44.032;20.900;2023-09-19T15:31:37;23.20;99.90
50544;DHT22;41176;44.032;20.900;2023-09-19T15:34:04;23.20;99.90
50544;DHT22;41176;44.032;20.900;2023-09-19T15:36:30;23.10;99.90
50544;DHT22;41176;44.032;20.900;2023-09-19T15:38:57;23.10;99.90
50544;DHT22;41176;44.032;20.900;2023-09-19T15:41:27;23.10;99.90
50544;DHT22;41176;44.032;20.900;2023-09-19T15:43:54;23.10;99.90
50544;DHT22;41176;44.032;20.900;2023-09-19T15:46:23;23.00;99.90
50544;DHT22;41176;44.032;20.900;2023-09-19T15:48:48;22.90;99.90
50544;DHT22;41176;44.032;20.900;2023-09-19T15:51:15;22.70;99.90
50544;DHT22;41176;44.032;20.900;2023-09-19T15:53:49;22.70;99.90
50544;DHT22;41176;44.032;20.900;2023-09-19T15:56:19;22.50;99.90
50544;DHT22;41176;44.032;20.900;2023-09-19T15:58:50;22.40;99.90
50544;DHT22;41176;44.032;20.900;2023-09-19T16:01:17;22.30;99.90
50544;DHT22;41176;44.032;20.900;2023-09-19T16:03:46;22.50;99.90
50544;DHT22;41176;44.032;20.900;2023-09-19T16:06:22;22.60;99.90
50544;DHT22;41176;44.032;20.900;2023-09-19T16:08:50;22.50;99.90
50544;DHT22;41176;44.032;20.900;2023-09-19T16:11:17;22.50;99.90
50544;DHT22;41176;44.032;20.900;2023-09-19T16:13:43;22.50;99.90
50544;DHT22;41176;44.032;20.900;2023-09-19T16:16:12;22.60;99.90
50544;DHT22;41176;44.032;20.900;2023-09-19T16:18:56;22.60;99.90
50544;DHT22;41176;44.032;20.900;2023-09-19T16:21:27;22.60;99.90
50544;DHT22;41176;44.032;20.900;2023-09-19T16:23:54;22.60;99.90
50544;DHT22;41176;44.032;20.900;2023-09-19T16:26:20;22.60;99.90